Nearby METAR Reports

 

CYGK - Kingston Arpt (m, Ontario, Canada
Distance from station: SSW 54km
Updated: 22/02/2018 23:00
NOT Current
Partly cloudy
Partly cloudy
 Wind from NE
Wind: NE 11 km/h
Temperature: -5°C
Wind Chill: -9°C
Dew Point: -9°C
Humidity: 74%
Barometer: 1039.3 hPa
Clouds: Partly cloudy
Visibility: 24 km
Cloud details: Partly cloudy 7315 m
2018/02/23 04:00 CYGK 230400Z 05006KT 15SM SCT240 M05/M09 A3069 RMK CI4 LAST STFD OBS/NEXT 231100 UTC SLP400
CXKE - Kemptville, Ontario, Canada
Distance from station: ENE 68km
Updated: 23/02/2018 00:00

 Wind from ESE
Wind: ESE 2 km/h
Temperature: -8°C
Dew Point: -9°C
Humidity: 93%
2018/02/23 05:00 CXKE 230500Z AUTO 12001KT M08/M09 RMK AO1 SOG 03 8003 SLP402 T10811090
 
KART - Watertown, New York, USA
Distance from station: SSE 81km
Updated: 23/02/2018 00:56
Clear
Clear
 Wind from ENE
Wind: ENE 7 km/h
Temperature: -5°C
Wind Chill: -8°C
Dew Point: -7°C
Humidity: 86%
Barometer: 1038.6 hPa
Clouds: Clear
Visibility: 16 km
2018/02/23 05:56 KART 230556Z AUTO 07004KT 10SM CLR M05/M07 A3067 RMK AO2 SLP391 T10501072 11033 21050 56012
KGTB - Fort Drum/Wheele, New York, USA
Distance from station: SE 85km
Updated: 23/02/2018 00:56
Clear
Clear
 Wind from E
Wind: E 7 km/h
Temperature: -6°C
Wind Chill: -10°C
Dew Point: -8°C
Humidity: 86%
Barometer: 1037.6 hPa
Clouds: Clear
Visibility: 16 km
2018/02/23 05:56 KGTB 230556Z AUTO 08004KT 10SM CLR M06/M08 A3064 RMK AO2 SLP388 T10601080 11037 21061 57009
 
CYOW - Ottawa Intl, Ontario, Canada
Distance from station: NE 90km
Updated: 23/02/2018 00:00
Mostly cloudy
Mostly cloudy
 Wind from ESE
Wind: ESE 6 km/h
Temperature: -6°C
Dew Point: -9°C
Humidity: 80%
Barometer: 1040 hPa
Clouds: Mostly cloudy
Visibility: 24 km
Cloud details: Mostly cloudy 3353 m
2018/02/23 05:00 CYOW 230500Z 11003KT 15SM BKN110 M06/M09 A3071 RMK AC7 SLP409
CYTR - Trenton (can Mil, Ontario, Canada
Distance from station: SW 110km
Updated: 23/02/2018 00:00
Mostly cloudy
Mostly cloudy
 Wind from ENE
Wind: ENE 9 km/h
Temperature: -4°C
Wind Chill: -8°C
Dew Point: -10°C
Humidity: 63%
Barometer: 1038.6 hPa
Clouds: Mostly cloudy
Visibility: 24 km
Cloud details: Few Clouds 2530 m
Mostly cloudy 6096 m
2018/02/23 05:00 CYTR 230500Z 07005KT 15SM FEW083 BKN200 M04/M10 A3067 RMK AC2CI4 SLP392
 
CWQP - Point Petre (mar, Ontario, Canada
Distance from station: SW 112km
Updated: 23/02/2018 00:00

 Wind from ENE
Wind: ENE 20 km/h
Temperature: -3°C
Wind Chill: -9°C
Dew Point: -7°C
Humidity: 74%
2018/02/23 05:00 CWQP 230500Z AUTO 06011KT M03/M07 RMK AO1 SOG 00 8004 SLP390 T10311074
CYND - Gatineau Airport, Quebec, Canada
Distance from station: NNE 113km
Updated: 22/02/2018 21:00
NOT Current
Clear
Clear
 Wind from NW
Wind: NW 6 km/h
Temperature: -11°C
Dew Point: -13°C
Humidity: 85%
Barometer: 1040.6 hPa
Clouds: Clear
Visibility: 24 km
2018/02/23 02:00 CYND 230200Z 31003KT 15SM SKC M11/M13 A3073 RMK LAST STFD OBS/NEXT 231200 UTC SLP414
 
KMSS - Massena, New York, USA
Distance from station: ENE 123km
Updated: 23/02/2018 00:53
Clear
Clear
 Wind from NE
Wind: NE 6 km/h
Temperature: -9°C
Dew Point: -10°C
Humidity: 93%
Barometer: 1040.3 hPa
Clouds: Clear
Visibility: 16 km
2018/02/23 05:53 KMSS 230553Z AUTO 04003KT 10SM CLR M09/M10 A3072 RMK AO2 SLP409 I1000 I6000 T10891100 11056 21089 58009
CWRK - Bancroft Autob, Ontario, Canada
Distance from station: WNW 126km
Updated: 23/02/2018 00:00

 Wind from S
Wind: S 2 km/h
Temperature: -4°C
Dew Point: -9°C
Humidity: 69%
2018/02/23 05:00 CWRK 230500Z AUTO 18001KT M04/M09 RMK AO1 SOG 07 8011 SLP383 T10391089
 
CXHF - High Falls Cs (a, Quebec, Canada
Distance from station: NNE 141km
Updated: 23/02/2018 00:00

 
Temperature: -9°C
Dew Point: -10°C
Humidity: 93%
2018/02/23 05:00 CXHF 230500Z AUTO M09/M10 RMK AO1 T10891097
KFZY - Fulton, New York, USA
Distance from station: S 147km
Updated: 23/02/2018 00:54
Partly cloudy
Partly cloudy
 Wind from calm
Wind: Calm
Temperature: -2°C
Dew Point: -3°C
Humidity: 93%
Barometer: 1037.9 hPa
Clouds: Partly cloudy
Visibility: 16 km
Cloud details: Partly cloudy 579 m
2018/02/23 05:54 KFZY 230554Z AUTO 00000KT 10SM SCT019 M02/M03 A3065 RMK AO2 SLP386 I6000 T10221033 11006 21028 58006
 
CYWA - Petawawa, Ontario, Canada
Distance from station: NNW 160km
Updated: 23/02/2018 00:00
Clear
Clear
 Wind from ESE
Wind: ESE 4 km/h
Temperature: -6°C
Dew Point: -9°C
Humidity: 80%
Barometer: 1038.9 hPa
Clouds: Clear
Visibility: 14 km
2018/02/23 05:00 CYWA 230500Z AUTO 11002KT 9SM CLR M06/M09 A3068 RMK SLP398
CWNC - Cobourg (mars), Ontario, Canada
Distance from station: WSW 164km
Updated: 23/02/2018 00:00

 Wind from E
Wind: E 13 km/h
Temperature: -2°C
Wind Chill: -7°C
Dew Point: -10°C
Humidity: 55%
2018/02/23 05:00 CWNC 230500Z AUTO 09007KT M02/M10 RMK AO1 SOG 01 8007 SLP381 T10241098
 
CYPQ - Peterborough Arp, Ontario, Canada
Distance from station: WSW 167km
Updated: 23/02/2018 00:00
Mostly cloudy
Mostly cloudy
 Wind from E
Wind: E 7 km/h
Temperature: -3°C
Wind Chill: -6°C
Dew Point: -9°C
Humidity: 64%
Barometer: 1037.3 hPa
Clouds: Mostly cloudy
Visibility: 14 km
Cloud details: Mostly cloudy 2286 m
Mostly cloudy 7010 m
2018/02/23 05:00 CYPQ 230500Z AUTO 08004KT 050V120 9SM BKN075 BKN230 M03/M09 A3063 RMK SLP384
CWBZ - St Anicet, Quebec, Canada
Distance from station: ENE 172km
Updated: 23/02/2018 00:00

 Wind from ESE
Wind: ESE 2 km/h
Temperature: -9°C
Dew Point: -9°C
Humidity: 100%
2018/02/23 05:00 CWBZ 230500Z AUTO 11001KT M09/M09 RMK AO1 T10861093 56002
 
KSLK - Saranac Lake, New York, USA
Distance from station: E 174km
Updated: 23/02/2018 00:51
Clear
Clear
 
Temperature: -9°C
Dew Point: -10°C
Humidity: 93%
Barometer: 1035.9 hPa
Clouds: Clear
Visibility: 16 km
2018/02/23 05:51 KSLK 230551Z AUTO 10SM CLR M09/M10 A3059 RMK AO2 SLP388 I1000 I6000 T10891100 11044 21094 50001 $
KSYR - Syracuse, New York, USA
Distance from station: S 174km
Updated: 23/02/2018 00:54
Mist, Overcast
Mist, Overcast
 Wind from E
Wind: E 7 km/h
Temperature: 0°C
Wind Chill: -3°C
Dew Point: 0°C
Humidity: 100%
Barometer: 1037.9 hPa
Summary: Mist
Clouds: Overcast
Visibility: 10 km
Cloud details: Few Clouds 122 m
Overcast 579 m
2018/02/23 05:54 KSYR 230554Z 08004KT 6SM BR FEW004 OVC019 00/00 A3065 RMK AO2 SLP383 T00000000 10006 20000 55002 $
 
CTNK - Algonquin Park, Ontario, Canada
Distance from station: WNW 177km
Updated: 23/02/2018 00:00

 Wind from calm
Wind: Calm
Temperature: -4°C
Dew Point: -8°C
Humidity: 74%
2018/02/23 05:00 CTNK 230500Z AUTO 00000KT M04/M08 RMK AO1 SOG 16 8013 SLP376 T10421079
KRME - Rome/Griffiss Af, New York, USA
Distance from station: SSE 179km
Updated: 23/02/2018 00:53
Overcast
Overcast
 Wind from ESE
Wind: ESE 6 km/h
Temperature: -1°C
Dew Point: -2°C
Humidity: 93%
Barometer: 1038.9 hPa
Clouds: Overcast
Visibility: 16 km
Cloud details: Overcast 305 m
2018/02/23 05:53 KRME 230553Z AUTO 11003KT 10SM OVC010 M01/M02 A3068 RMK AO2 CIG 008V012 SLP393 T10061017 10006 21011 55004